createdAt,value
2018-12-12T00:01:23.340Z,7.70
2018-12-12T00:03:52.347Z,7.87
2018-12-12T00:06:21.809Z,7.40
2018-12-12T00:08:51.000Z,7.23
2018-12-12T00:11:20.050Z,7.77
2018-12-12T00:13:49.166Z,8.07
2018-12-12T00:16:18.041Z,7.53
2018-12-12T00:18:46.646Z,7.93
2018-12-12T00:21:15.249Z,7.63
2018-12-12T00:23:44.328Z,7.50
2018-12-12T00:26:12.965Z,7.80
2018-12-12T00:28:41.583Z,7.67
2018-12-12T00:31:10.182Z,8.17
2018-12-12T00:33:38.805Z,7.37
2018-12-12T00:36:07.432Z,8.07
2018-12-12T00:38:36.212Z,7.20
2018-12-12T00:41:04.874Z,7.00
2018-12-12T00:43:33.455Z,6.83
2018-12-12T00:46:02.090Z,6.77
2018-12-12T00:48:30.742Z,6.67
2018-12-12T00:50:59.347Z,6.90
2018-12-12T00:53:27.962Z,6.50
2018-12-12T00:55:56.673Z,6.50
2018-12-12T00:58:25.269Z,6.60
2018-12-12T01:00:53.906Z,6.60
2018-12-12T01:03:22.517Z,7.20
2018-12-12T01:05:51.189Z,6.57
2018-12-12T01:08:19.823Z,5.77
2018-12-12T01:10:51.031Z,6.30
2018-12-12T01:13:19.701Z,5.70
2018-12-12T01:15:48.326Z,6.03
2018-12-12T01:18:17.007Z,5.00
2018-12-12T01:20:45.650Z,6.33
2018-12-12T01:23:14.259Z,6.13
2018-12-12T01:25:42.862Z,5.53
2018-12-12T01:28:11.530Z,5.07
2018-12-12T01:30:40.141Z,5.77
2018-12-12T01:33:08.786Z,6.20
2018-12-12T01:35:37.394Z,5.47
2018-12-12T01:38:06.007Z,5.10
2018-12-12T01:40:34.646Z,5.53
2018-12-12T01:43:03.326Z,5.67
2018-12-12T01:45:32.465Z,5.10
2018-12-12T01:48:01.709Z,5.20
2018-12-12T01:50:30.385Z,5.37
2018-12-12T01:52:58.988Z,5.80
2018-12-12T01:55:27.574Z,5.13
2018-12-12T01:57:56.266Z,4.90
2018-12-12T02:00:24.901Z,5.37
2018-12-12T02:02:58.201Z,5.07
2018-12-12T02:05:27.148Z,5.63
2018-12-12T02:07:55.833Z,5.30
2018-12-12T02:10:24.563Z,5.00
2018-12-12T02:13:04.344Z,5.30
2018-12-12T02:15:32.945Z,4.87
2018-12-12T02:18:01.537Z,4.80
2018-12-12T02:20:30.174Z,5.00
2018-12-12T02:22:58.809Z,5.10
2018-12-12T02:25:27.432Z,4.43
2018-12-12T02:27:56.127Z,4.33
2018-12-12T02:30:24.816Z,4.50
2018-12-12T02:32:53.417Z,5.10
2018-12-12T02:35:22.034Z,4.77
2018-12-12T02:37:50.685Z,4.03
2018-12-12T02:40:19.293Z,4.90
2018-12-12T02:42:47.927Z,4.30
2018-12-12T02:45:16.598Z,4.87
2018-12-12T02:47:45.197Z,3.87
2018-12-12T02:50:13.833Z,4.30
2018-12-12T02:52:42.463Z,4.47
2018-12-12T02:55:11.186Z,4.40
2018-12-12T02:57:39.792Z,4.37
2018-12-12T03:00:09.840Z,3.63
2018-12-12T03:02:38.978Z,3.57
2018-12-12T03:05:07.593Z,4.13
2018-12-12T03:07:36.252Z,3.73
2018-12-12T03:10:04.967Z,3.80
2018-12-12T03:12:33.648Z,3.73
2018-12-12T03:15:02.330Z,3.97
2018-12-12T03:17:30.942Z,3.87
2018-12-12T03:19:59.609Z,3.30
2018-12-12T03:22:28.243Z,3.60
2018-12-12T03:24:56.879Z,3.57
2018-12-12T03:27:25.558Z,2.83
2018-12-12T03:29:54.254Z,2.60
2018-12-12T03:32:22.928Z,2.40
2018-12-12T03:34:51.533Z,1.70
2018-12-12T03:37:20.147Z,2.20
2018-12-12T03:39:48.755Z,2.23
2018-12-12T03:42:17.347Z,2.30
2018-12-12T03:44:46.024Z,2.40
2018-12-12T03:47:14.627Z,2.37
2018-12-12T03:49:43.582Z,2.17
2018-12-12T03:52:12.180Z,2.30
2018-12-12T03:54:40.815Z,2.07
2018-12-12T03:57:09.453Z,2.43
2018-12-12T03:59:38.054Z,2.23
2018-12-12T04:02:06.709Z,2.00
2018-12-12T04:04:35.369Z,2.40
2018-12-12T04:07:03.992Z,2.63
2018-12-12T04:09:32.654Z,2.00
2018-12-12T04:12:01.306Z,2.27
2018-12-12T04:14:29.897Z,2.10
2018-12-12T04:16:58.530Z,2.10
2018-12-12T04:19:27.209Z,2.67
2018-12-12T04:21:55.936Z,3.00
2018-12-12T04:24:26.612Z,2.67
2018-12-12T04:26:55.250Z,2.70
2018-12-12T04:29:23.866Z,2.23
2018-12-12T04:31:52.498Z,2.23
2018-12-12T04:34:21.143Z,2.30
2018-12-12T04:36:49.730Z,2.00
2018-12-12T04:39:18.385Z,2.17
2018-12-12T04:41:47.046Z,2.10
2018-12-12T04:44:15.640Z,2.33
2018-12-12T04:46:44.274Z,2.43
2018-12-12T04:49:12.920Z,2.10
2018-12-12T04:51:41.540Z,2.17
2018-12-12T04:54:10.158Z,2.37
2018-12-12T04:56:38.783Z,2.40
2018-12-12T04:59:07.546Z,2.30
2018-12-12T05:01:36.415Z,2.40
2018-12-12T05:04:05.046Z,2.33
2018-12-12T05:06:33.994Z,2.27
2018-12-12T05:09:02.937Z,2.27
2018-12-12T05:11:31.846Z,2.30
2018-12-12T05:14:00.803Z,1.70
2018-12-12T05:16:29.417Z,2.20
2018-12-12T05:18:58.049Z,2.23
2018-12-12T05:21:26.654Z,2.10
2018-12-12T05:23:55.288Z,2.20
2018-12-12T05:26:23.951Z,2.07
2018-12-12T05:28:52.559Z,2.10
2018-12-12T05:31:21.202Z,2.20
2018-12-12T05:33:49.863Z,2.17
2018-12-12T05:36:18.738Z,2.20
2018-12-12T05:38:47.369Z,2.00
2018-12-12T05:41:16.001Z,1.97
2018-12-12T05:43:44.614Z,1.83
2018-12-12T05:46:13.242Z,2.10
2018-12-12T05:48:41.911Z,2.03
2018-12-12T05:51:10.531Z,2.10
2018-12-12T05:53:39.157Z,1.90
2018-12-12T05:56:13.928Z,2.00
2018-12-12T05:58:38.561Z,1.73
2018-12-12T06:01:07.222Z,1.67
2018-12-12T06:03:35.843Z,2.20
2018-12-12T06:06:04.466Z,2.10
2018-12-12T06:08:33.099Z,2.00
2018-12-12T06:11:01.738Z,2.90
2018-12-12T06:13:30.357Z,2.13
2018-12-12T06:15:58.999Z,1.70
2018-12-12T06:18:27.785Z,2.10
2018-12-12T06:20:56.394Z,2.40
2018-12-12T06:23:25.004Z,2.30
2018-12-12T06:25:55.252Z,2.83
2018-12-12T06:28:24.014Z,2.00
2018-12-12T06:30:55.049Z,1.93
2018-12-12T06:33:23.680Z,2.10
2018-12-12T06:35:52.724Z,1.63
2018-12-12T06:38:21.469Z,3.80
2018-12-12T06:40:50.481Z,2.30
2018-12-12T06:43:19.343Z,2.10
2018-12-12T06:45:48.070Z,2.07
2018-12-12T06:48:16.724Z,2.53
2018-12-12T06:50:45.340Z,2.23
2018-12-12T06:53:13.969Z,2.70
2018-12-12T06:55:42.624Z,2.80
2018-12-12T06:58:11.241Z,2.50
2018-12-12T07:00:39.866Z,2.97
2018-12-12T07:03:08.533Z,2.47
2018-12-12T07:05:37.199Z,2.80
2018-12-12T07:08:05.884Z,3.30
2018-12-12T07:10:34.546Z,2.43
2018-12-12T07:13:03.193Z,2.40
2018-12-12T07:15:31.845Z,2.63
2018-12-12T07:18:00.458Z,3.10
2018-12-12T07:20:29.112Z,3.10
2018-12-12T07:22:57.810Z,3.03
2018-12-12T07:25:26.481Z,3.43
2018-12-12T07:27:55.111Z,3.43
2018-12-12T07:30:23.750Z,3.40
2018-12-12T07:32:52.410Z,3.37
2018-12-12T07:35:21.909Z,3.83
2018-12-12T07:37:50.610Z,4.07
2018-12-12T07:40:19.234Z,5.17
2018-12-12T07:42:47.876Z,7.33
2018-12-12T07:45:16.716Z,8.47
2018-12-12T07:47:45.442Z,6.93
2018-12-12T07:50:14.073Z,6.80
2018-12-12T07:52:42.737Z,6.37
2018-12-12T07:55:11.430Z,6.83
2018-12-12T07:57:40.070Z,7.43
2018-12-12T08:00:09.139Z,8.23
2018-12-12T08:02:37.793Z,7.20
2018-12-12T08:05:06.402Z,7.53
2018-12-12T08:07:35.009Z,7.53
2018-12-12T08:10:04.077Z,7.07
2018-12-12T08:12:33.706Z,7.77
2018-12-12T08:15:02.869Z,7.80
2018-12-12T08:17:31.977Z,8.40
2018-12-12T08:20:00.641Z,8.17
2018-12-12T08:22:29.290Z,9.10
2018-12-12T08:24:57.941Z,10.90
2018-12-12T08:27:26.581Z,10.47
2018-12-12T08:29:55.322Z,12.27
2018-12-12T08:32:23.942Z,12.10
2018-12-12T08:34:52.742Z,10.77
2018-12-12T08:37:21.397Z,10.93
2018-12-12T08:39:50.101Z,11.83
2018-12-12T08:42:18.722Z,10.93
2018-12-12T08:44:47.653Z,11.20
2018-12-12T08:47:16.297Z,11.40
2018-12-12T08:49:44.970Z,10.23
2018-12-12T08:52:15.434Z,9.20
2018-12-12T08:54:44.211Z,9.93
2018-12-12T08:57:12.990Z,9.67
2018-12-12T08:59:41.805Z,10.30
2018-12-12T09:02:10.416Z,8.97
2018-12-12T09:04:39.030Z,10.70
2018-12-12T09:07:07.642Z,9.53
2018-12-12T09:09:36.861Z,9.47
2018-12-12T09:12:05.710Z,9.63
2018-12-12T09:15:04.770Z,8.93
2018-12-12T09:17:33.506Z,9.37
2018-12-12T09:20:02.431Z,8.90
2018-12-12T09:22:31.113Z,10.30
2018-12-12T09:24:59.743Z,10.57
2018-12-12T09:27:28.485Z,11.03
2018-12-12T09:29:57.261Z,9.67
2018-12-12T09:32:26.534Z,9.63
2018-12-12T09:34:55.201Z,9.10
2018-12-12T09:37:23.811Z,8.90
2018-12-12T09:39:52.498Z,8.70
2018-12-12T09:42:21.133Z,8.13
2018-12-12T09:44:49.766Z,8.10
2018-12-12T09:47:18.541Z,8.83
2018-12-12T09:49:47.261Z,8.87
2018-12-12T09:52:16.113Z,8.90
2018-12-12T09:54:44.709Z,8.87
2018-12-12T09:57:13.351Z,8.97
2018-12-12T09:59:42.079Z,9.00
2018-12-12T10:02:10.678Z,9.23
2018-12-12T10:04:39.268Z,8.87
2018-12-12T10:07:07.874Z,8.67
2018-12-12T10:09:36.516Z,8.50
2018-12-12T10:12:05.169Z,8.37
2018-12-12T10:14:34.834Z,5.13
2018-12-12T10:17:03.929Z,4.50
2018-12-12T10:19:32.677Z,4.63
2018-12-12T10:22:01.660Z,5.10
2018-12-12T10:24:30.530Z,5.60
2018-12-12T10:26:59.171Z,5.80
2018-12-12T10:29:28.583Z,5.97
2018-12-12T10:31:57.197Z,6.20
2018-12-12T10:34:25.817Z,6.20
2018-12-12T10:36:54.461Z,6.40
2018-12-12T10:39:23.124Z,6.67
2018-12-12T10:41:51.839Z,6.07
2018-12-12T10:44:20.468Z,6.20
2018-12-12T10:46:49.062Z,6.10
2018-12-12T10:49:17.682Z,5.97
2018-12-12T10:51:46.438Z,6.03
2018-12-12T10:54:15.141Z,5.93
2018-12-12T10:56:43.756Z,5.40
2018-12-12T10:59:12.429Z,6.63
2018-12-12T11:01:47.383Z,8.57
2018-12-12T11:04:17.689Z,8.90
2018-12-12T11:06:46.315Z,7.13
2018-12-12T11:09:14.945Z,6.57
2018-12-12T11:11:45.620Z,6.63
2018-12-12T11:14:14.281Z,6.13
2018-12-12T11:16:42.952Z,6.43
2018-12-12T11:19:11.573Z,6.90
2018-12-12T11:21:40.277Z,6.33
2018-12-12T11:24:08.918Z,6.53
2018-12-12T11:26:37.527Z,6.00
2018-12-12T11:29:06.717Z,6.63
2018-12-12T11:31:35.356Z,6.30
2018-12-12T11:34:03.989Z,6.27
2018-12-12T11:36:33.694Z,6.10
2018-12-12T11:39:02.389Z,6.10
2018-12-12T11:41:31.209Z,6.40
2018-12-12T11:43:59.929Z,6.20
2018-12-12T11:46:28.563Z,5.73
2018-12-12T11:48:57.287Z,5.87
2018-12-12T11:51:25.938Z,6.60
2018-12-12T11:53:54.509Z,6.87
2018-12-12T11:56:23.280Z,5.63
2018-12-12T11:58:51.914Z,5.97
2018-12-12T12:01:23.174Z,5.70
2018-12-12T12:03:56.709Z,5.73
2018-12-12T12:06:22.710Z,5.53
2018-12-12T12:08:51.321Z,6.23
2018-12-12T12:11:20.374Z,5.40
2018-12-12T12:13:49.093Z,6.23
2018-12-12T12:16:17.761Z,5.70
2018-12-12T12:18:46.395Z,5.10
2018-12-12T12:21:15.138Z,5.07
2018-12-12T12:23:43.814Z,5.07
2018-12-12T12:26:14.651Z,5.47
2018-12-12T12:28:43.282Z,5.63
2018-12-12T12:31:11.916Z,4.97
2018-12-12T12:33:41.520Z,5.10
2018-12-12T12:36:10.303Z,4.87
2018-12-12T12:38:40.120Z,5.10
2018-12-12T12:41:08.822Z,5.23
2018-12-12T12:43:37.504Z,5.37
2018-12-12T12:46:06.513Z,4.70
2018-12-12T12:48:35.179Z,4.53
2018-12-12T12:51:03.846Z,4.63
2018-12-12T12:53:32.530Z,4.40
2018-12-12T12:56:01.202Z,4.70
2018-12-12T12:58:29.854Z,4.60
2018-12-12T13:00:58.649Z,4.67
2018-12-12T13:03:27.354Z,5.30
2018-12-12T13:05:56.069Z,4.90
2018-12-12T13:08:25.100Z,4.90
2018-12-12T13:10:54.082Z,4.73
2018-12-12T13:13:23.280Z,4.53
2018-12-12T13:15:52.472Z,4.43
2018-12-12T13:18:22.195Z,5.10
2018-12-12T13:20:51.319Z,4.97
2018-12-12T13:23:20.079Z,4.87
2018-12-12T13:25:49.228Z,4.83
2018-12-12T13:28:18.606Z,4.40
2018-12-12T13:30:47.765Z,4.23
2018-12-12T13:33:20.393Z,4.77
2018-12-12T13:35:49.477Z,4.60
2018-12-12T13:38:18.615Z,4.87
2018-12-12T13:40:47.363Z,4.50
2018-12-12T13:43:17.455Z,5.07
2018-12-12T13:45:46.570Z,6.30
2018-12-12T13:48:15.249Z,5.57
2018-12-12T13:50:43.884Z,5.07
2018-12-12T13:53:12.586Z,4.90
2018-12-12T13:55:42.140Z,5.97
2018-12-12T13:58:10.818Z,5.60
2018-12-12T14:00:39.473Z,5.47
2018-12-12T14:03:09.681Z,4.77
2018-12-12T14:05:38.379Z,4.73
2018-12-12T14:08:07.037Z,4.27
2018-12-12T14:10:35.686Z,4.60
2018-12-12T14:13:05.343Z,4.03
2018-12-12T14:15:34.515Z,4.13
2018-12-12T14:18:03.749Z,4.07
2018-12-12T14:20:33.292Z,4.10
2018-12-12T14:23:02.572Z,4.50
2018-12-12T14:25:31.248Z,4.17
2018-12-12T14:27:59.883Z,4.47
2018-12-12T14:30:28.517Z,4.47
2018-12-12T14:32:57.166Z,4.30
2018-12-12T14:35:27.689Z,4.20
2018-12-12T14:37:56.318Z,4.53
2018-12-12T14:40:24.967Z,4.30
2018-12-12T14:42:53.604Z,4.47
2018-12-12T14:45:22.218Z,4.70
2018-12-12T14:47:50.884Z,4.47
2018-12-12T14:50:19.529Z,4.70
2018-12-12T14:52:48.237Z,4.17
2018-12-12T14:55:17.698Z,3.70
2018-12-12T14:57:46.362Z,4.37
2018-12-12T15:00:15.207Z,4.53
2018-12-12T15:02:43.938Z,4.73
2018-12-12T15:05:13.098Z,4.00
2018-12-12T15:07:41.808Z,3.97
2018-12-12T15:10:10.514Z,3.90
2018-12-12T15:12:40.473Z,4.03
2018-12-12T15:15:09.118Z,4.03
2018-12-12T15:17:37.746Z,3.90
2018-12-12T15:20:06.430Z,3.77
2018-12-12T15:22:35.099Z,4.20
2018-12-12T15:25:03.789Z,3.97
2018-12-12T15:27:32.429Z,3.57
2018-12-12T15:30:01.061Z,3.63
2018-12-12T15:32:29.761Z,3.43
2018-12-12T15:34:58.406Z,4.20
2018-12-12T15:37:27.095Z,3.60
2018-12-12T15:39:55.749Z,3.67
2018-12-12T15:42:24.385Z,3.43
2018-12-12T15:44:53.039Z,3.40
2018-12-12T15:47:21.345Z,3.70
2018-12-12T15:49:50.097Z,3.53
2018-12-12T15:52:18.757Z,3.23
2018-12-12T15:54:47.419Z,3.40
2018-12-12T15:57:16.066Z,3.53
2018-12-12T15:59:44.998Z,3.30
2018-12-12T16:02:13.689Z,3.37
2018-12-12T16:04:48.807Z,3.50
2018-12-12T16:07:13.107Z,3.60
2018-12-12T16:09:42.490Z,2.60
2018-12-12T16:12:11.141Z,2.50
2018-12-12T16:14:39.773Z,2.83
2018-12-12T16:17:08.445Z,2.87
2018-12-12T16:19:37.080Z,2.80
2018-12-12T16:22:05.786Z,2.80
2018-12-12T16:24:34.410Z,3.00
2018-12-12T16:27:03.089Z,2.90
2018-12-12T16:29:31.718Z,2.50
2018-12-12T16:32:00.325Z,3.30
2018-12-12T16:34:28.962Z,2.90
2018-12-12T16:36:57.569Z,2.93
2018-12-12T16:39:26.402Z,3.33
2018-12-12T16:41:55.517Z,3.13
2018-12-12T16:44:24.297Z,2.57
2018-12-12T16:46:53.229Z,2.90
2018-12-12T16:49:21.913Z,3.10
2018-12-12T16:51:50.649Z,2.97
2018-12-12T16:54:19.249Z,2.77
2018-12-12T16:56:47.916Z,3.07
2018-12-12T16:59:17.110Z,2.97
2018-12-12T17:01:45.733Z,2.67
2018-12-12T17:04:14.398Z,2.53
2018-12-12T17:06:42.990Z,2.80
2018-12-12T17:09:11.646Z,2.27
2018-12-12T17:11:40.249Z,2.30
2018-12-12T17:14:09.644Z,2.40
2018-12-12T17:16:38.242Z,2.10
2018-12-12T17:19:06.993Z,2.60
2018-12-12T17:21:35.619Z,2.57
2018-12-12T17:24:05.002Z,2.30
2018-12-12T17:26:34.565Z,2.43
2018-12-12T17:29:03.597Z,2.80
2018-12-12T17:31:32.314Z,2.50
2018-12-12T17:34:00.912Z,2.50
2018-12-12T17:36:29.522Z,2.30
2018-12-12T17:38:58.192Z,2.73
2018-12-12T17:41:26.868Z,2.27
2018-12-12T17:43:55.460Z,2.40
2018-12-12T17:46:24.096Z,2.60
2018-12-12T17:48:52.971Z,2.50
2018-12-12T17:51:21.621Z,2.13
2018-12-12T17:53:50.260Z,2.57
2018-12-12T17:56:18.846Z,2.60
2018-12-12T17:58:47.501Z,2.17
2018-12-12T18:01:16.171Z,2.60
2018-12-12T18:03:45.221Z,2.57
2018-12-12T18:06:13.847Z,2.60
2018-12-12T18:08:42.547Z,2.60
2018-12-12T18:11:11.237Z,2.40
2018-12-12T18:13:39.854Z,2.70
2018-12-12T18:16:08.483Z,3.10
2018-12-12T18:18:37.126Z,3.03
2018-12-12T18:21:05.800Z,2.80
2018-12-12T18:23:34.433Z,3.30
2018-12-12T18:26:03.063Z,3.60
2018-12-12T18:28:31.669Z,3.50
2018-12-12T18:31:00.593Z,3.20
2018-12-12T18:33:29.271Z,3.40
2018-12-12T18:35:57.886Z,3.30
2018-12-12T18:38:26.536Z,3.20
2018-12-12T18:40:55.195Z,3.13
2018-12-12T18:43:23.815Z,3.07
2018-12-12T18:45:52.454Z,3.27
2018-12-12T18:48:21.190Z,3.43
2018-12-12T18:50:50.342Z,3.03
2018-12-12T18:53:19.673Z,2.70
2018-12-12T18:55:48.630Z,3.30
2018-12-12T18:58:17.577Z,2.93
2018-12-12T19:00:46.241Z,2.90
2018-12-12T19:03:15.381Z,3.07
2018-12-12T19:05:44.207Z,3.50
2018-12-12T19:08:13.386Z,3.10
2018-12-12T19:10:42.275Z,2.97
2018-12-12T19:13:11.210Z,3.43
2018-12-12T19:15:39.909Z,3.47
2018-12-12T19:18:08.618Z,3.60
2018-12-12T19:20:37.322Z,4.23
2018-12-12T19:23:06.453Z,8.33
2018-12-12T19:25:35.816Z,10.10
2018-12-12T19:28:06.701Z,10.97
2018-12-12T19:30:36.599Z,11.43
2018-12-12T19:33:06.635Z,12.13
2018-12-12T19:35:35.983Z,12.27
2018-12-12T19:38:04.636Z,12.33
2018-12-12T19:40:33.289Z,12.30
2018-12-12T19:43:02.042Z,12.70
2018-12-12T19:45:32.498Z,12.87
2018-12-12T19:48:01.457Z,12.67
2018-12-12T19:50:30.875Z,13.67
2018-12-12T19:53:00.363Z,12.97
2018-12-12T19:55:30.034Z,14.10
2018-12-12T19:58:02.398Z,14.30
2018-12-12T20:00:31.111Z,13.83
2018-12-12T20:03:00.579Z,13.67
2018-12-12T20:05:29.859Z,13.33
2018-12-12T20:07:59.105Z,14.37
2018-12-12T20:10:30.378Z,13.47
2018-12-12T20:12:59.631Z,13.93
2018-12-12T20:15:33.754Z,14.20
2018-12-12T20:18:03.079Z,13.97
2018-12-12T20:20:31.970Z,14.30
2018-12-12T20:23:00.582Z,12.47
2018-12-12T20:34:33.737Z,13.97
2018-12-12T20:37:03.660Z,13.47
2018-12-12T20:39:32.345Z,13.57
2018-12-12T20:42:01.101Z,13.17
2018-12-12T20:44:29.832Z,13.23
2018-12-12T20:46:59.212Z,11.97
2018-12-12T20:49:28.594Z,12.90
2018-12-12T20:51:58.222Z,12.20
2018-12-12T20:54:27.746Z,11.87
2018-12-12T20:56:56.423Z,12.40
2018-12-12T20:59:25.068Z,12.30
2018-12-12T21:01:53.773Z,10.93
2018-12-12T21:04:22.389Z,17.00
2018-12-12T21:06:51.022Z,17.03
2018-12-12T21:09:19.698Z,9.40
2018-12-12T21:11:48.314Z,8.10
2018-12-12T21:14:16.992Z,8.23
2018-12-12T21:16:45.910Z,7.93
2018-12-12T21:19:14.833Z,7.70
2018-12-12T21:21:43.501Z,8.40
2018-12-12T21:24:12.152Z,8.33
2018-12-12T21:26:40.763Z,8.80
2018-12-12T21:29:09.407Z,9.27
2018-12-12T21:31:38.056Z,8.57
2018-12-12T21:34:06.714Z,8.90
2018-12-12T21:36:35.378Z,9.87
2018-12-12T21:39:05.214Z,11.73
2018-12-12T21:41:33.878Z,13.53
2018-12-12T21:44:02.549Z,13.03
2018-12-12T21:46:31.190Z,13.57
2018-12-12T21:48:59.850Z,12.60
2018-12-12T21:51:28.829Z,12.50
2018-12-12T21:53:57.484Z,12.97
2018-12-12T21:56:26.130Z,12.70
2018-12-12T21:58:54.816Z,12.47
2018-12-12T22:01:24.693Z,12.57
2018-12-12T22:03:54.998Z,12.53
2018-12-12T22:06:23.748Z,13.30
2018-12-12T22:08:52.446Z,12.17
2018-12-12T22:11:21.135Z,11.27
2018-12-12T22:13:49.789Z,12.40
2018-12-12T22:16:21.375Z,13.07
2018-12-12T22:18:49.983Z,13.30
2018-12-12T22:21:18.620Z,12.47
2018-12-12T22:23:47.465Z,12.33
2018-12-12T22:26:16.765Z,12.03
2018-12-12T22:28:46.421Z,12.17
2018-12-12T22:31:15.312Z,12.37
2018-12-12T22:33:47.098Z,13.07
2018-12-12T22:36:16.707Z,12.37
2018-12-12T22:38:46.076Z,12.53
2018-12-12T22:41:16.427Z,12.80
2018-12-12T22:43:45.216Z,12.10
2018-12-12T22:46:15.697Z,12.27
2018-12-12T22:48:44.869Z,11.30
2018-12-12T22:51:14.211Z,10.43
2018-12-12T22:53:43.199Z,11.70
2018-12-12T22:56:12.753Z,11.47
2018-12-12T22:58:41.582Z,10.60
2018-12-12T23:01:10.627Z,10.90
2018-12-12T23:03:42.350Z,11.17
2018-12-12T23:06:11.162Z,11.80
2018-12-12T23:08:40.477Z,9.93
2018-12-12T23:11:10.822Z,10.30
2018-12-12T23:13:39.634Z,11.33
2018-12-12T23:16:08.369Z,10.73
2018-12-12T23:18:40.386Z,9.37
2018-12-12T23:21:11.923Z,10.10
2018-12-12T23:23:41.227Z,10.10
2018-12-12T23:26:10.995Z,8.97
2018-12-12T23:28:39.742Z,9.00
2018-12-12T23:31:08.811Z,9.63
2018-12-12T23:33:37.670Z,8.67
2018-12-12T23:36:10.730Z,9.90
2018-12-12T23:38:41.276Z,10.17
2018-12-12T23:41:11.026Z,8.63
2018-12-12T23:43:40.060Z,8.70
2018-12-12T23:46:11.209Z,9.13
2018-12-12T23:48:41.197Z,9.77
2018-12-12T23:51:09.927Z,8.90
2018-12-12T23:53:39.311Z,8.83
2018-12-12T23:56:09.277Z,9.13
2018-12-12T23:58:40.141Z,9.40
